Time;durP1;ratioP1;P1;durP2;ratioP2;P2;SDS_P1;SDS_P2;PMS_P1;PMS_P2;Temp;Humidity;BMP_temperature;BMP_pressure;BME280_temperature;BME280_humidity;BME280_pressure;Samples;Min_cycle;Max_cycle;Signal;HPM_P1;HPM_P2
2023/10/25 00:02:17;;;;;;;9.43;1.92;;;16.10;95.50;;;;;;7382378;19;20063;-72
2023/10/25 00:04:46;;;;;;;3.47;2.08;;;16.10;95.70;;;;;;7383569;19;20067;-72
2023/10/25 00:07:17;;;;;;;4.68;1.77;;;16.10;96.00;;;;;;7382639;19;20425;-72
2023/10/25 00:09:46;;;;;;;9.77;1.98;;;16.10;96.10;;;;;;7383201;19;20381;-72
2023/10/25 00:12:14;;;;;;;6.05;1.90;;;16.00;96.20;;;;;;7405287;19;20007;-72
2023/10/25 00:14:46;;;;;;;6.22;1.88;;;16.00;96.40;;;;;;7382386;19;20051;-72
2023/10/25 00:17:14;;;;;;;4.82;1.80;;;16.00;96.60;;;;;;7382514;19;20006;-73
2023/10/25 00:19:43;;;;;;;8.77;1.90;;;16.00;96.80;;;;;;7382813;19;20002;-72
2023/10/25 00:22:12;;;;;;;7.05;2.03;;;16.00;96.80;;;;;;7382722;19;20098;-72
2023/10/25 00:24:41;;;;;;;3.47;1.50;;;16.00;97.00;;;;;;7383147;19;20006;-73
2023/10/25 00:27:09;;;;;;;6.00;2.20;;;15.90;97.10;;;;;;7403070;19;20228;-73
2023/10/25 00:29:38;;;;;;;4.80;2.13;;;15.90;97.10;;;;;;7381429;19;20007;-73
2023/10/25 00:32:14;;;;;;;6.95;2.05;;;15.90;97.30;;;;;;7381256;19;20015;-73
2023/10/25 00:34:43;;;;;;;5.53;2.13;;;15.90;97.40;;;;;;7383015;19;20013;-72
2023/10/25 00:37:11;;;;;;;8.40;1.85;;;15.90;97.60;;;;;;7381811;19;20002;-73
2023/10/25 00:39:40;;;;;;;6.57;2.53;;;15.90;97.70;;;;;;7381998;19;20007;-72
2023/10/25 00:42:09;;;;;;;6.75;2.38;;;15.90;97.90;;;;;;7403931;19;20010;-73
2023/10/25 00:44:38;;;;;;;5.15;2.25;;;15.80;98.00;;;;;;7378388;19;20014;-72
2023/10/25 00:47:10;;;;;;;5.65;2.38;;;15.90;98.20;;;;;;7380387;19;20007;-73
2023/10/25 00:49:39;;;;;;;6.05;1.85;;;15.80;98.20;;;;;;7381809;19;20009;-73
2023/10/25 00:52:08;;;;;;;5.90;2.10;;;15.80;98.70;;;;;;7381994;19;20445;-72
2023/10/25 00:54:38;;;;;;;5.65;2.08;;;15.80;98.50;;;;;;7383229;19;19996;-72
2023/10/25 00:57:07;;;;;;;13.05;2.35;;;15.80;98.70;;;;;;7402993;19;20010;-72
2023/10/25 00:59:36;;;;;;;7.28;2.38;;;15.80;98.80;;;;;;7380655;19;20295;-72
2023/10/25 01:02:07;;;;;;;2.88;1.98;;;15.70;98.80;;;;;;7380789;19;20007;-73
2023/10/25 01:04:39;;;;;;;11.20;1.90;;;15.70;99.00;;;;;;7381635;19;20010;-72
2023/10/25 01:07:08;;;;;;;4.13;2.05;;;15.70;99.00;;;;;;7380043;19;20027;-73
2023/10/25 01:09:36;;;;;;;3.75;1.75;;;15.70;99.10;;;;;;7381764;19;20064;-73
2023/10/25 01:12:06;;;;;;;9.18;2.20;;;15.70;99.20;;;;;;7402189;19;20366;-73
2023/10/25 01:14:35;;;;;;;3.03;1.83;;;15.70;99.40;;;;;;7380346;19;20023;-73
2023/10/25 01:17:03;;;;;;;5.35;2.22;;;15.70;99.40;;;;;;7380307;19;20026;-73
2023/10/25 01:19:32;;;;;;;2.85;1.90;;;15.70;99.40;;;;;;7381088;19;20023;-73
2023/10/25 01:22:03;;;;;;;8.32;1.98;;;15.70;99.40;;;;;;7380470;19;20026;-72
2023/10/25 01:24:34;;;;;;;5.00;1.65;;;15.70;99.50;;;;;;7380401;19;20409;-72
2023/10/25 01:27:03;;;;;;;6.13;1.88;;;15.70;99.30;;;;;;7401974;19;20010;-72
2023/10/25 01:29:32;;;;;;;5.70;2.05;;;15.60;99.20;;;;;;7379456;19;20275;-72
2023/10/25 01:32:00;;;;;;;5.35;1.80;;;15.60;99.30;;;;;;7382191;19;19999;-72
2023/10/25 01:34:29;;;;;;;3.88;2.13;;;15.60;99.30;;;;;;7380171;19;20003;-72
2023/10/25 01:36:58;;;;;;;4.45;1.77;;;15.60;99.40;;;;;;7380359;19;20090;-72
2023/10/25 01:39:26;;;;;;;4.20;1.92;;;15.60;99.40;;;;;;7380243;19;20007;-72
2023/10/25 01:41:58;;;;;;;3.20;1.85;;;15.60;99.50;;;;;;7401429;19;20007;-72
2023/10/25 01:44:26;;;;;;;;;;;15.60;99.40;;;;;;7378532;19;20016;-72
2023/10/25 01:46:55;;;;;;;5.43;2.05;;;15.50;99.40;;;;;;7379611;19;19974;-72
2023/10/25 01:49:24;;;;;;;5.10;2.03;;;15.50;99.40;;;;;;7380000;19;20374;-72
2023/10/25 01:51:52;;;;;;;4.45;1.80;;;15.60;99.50;;;;;;7379837;19;20126;-71
2023/10/25 01:54:21;;;;;;;2.97;1.75;;;15.60;99.50;;;;;;7379101;19;20291;-71
2023/10/25 01:56:50;;;;;;;5.60;1.73;;;15.60;99.50;;;;;;7400946;19;20066;-71
2023/10/25 01:59:21;;;;;;;6.28;1.85;;;15.60;99.60;;;;;;7378822;19;19999;-72
2023/10/25 02:01:49;;;;;;;5.38;1.70;;;15.60;99.40;;;;;;7379375;19;20062;-72
2023/10/25 02:04:18;;;;;;;3.70;1.63;;;15.60;99.40;;;;;;7379431;19;20070;-72
2023/10/25 02:06:51;;;;;;;5.00;1.75;;;15.60;99.40;;;;;;7379875;19;20126;-72
2023/10/25 02:09:20;;;;;;;4.07;1.70;;;15.60;99.40;;;;;;7379162;19;20003;-71
2023/10/25 02:11:49;;;;;;;9.05;1.65;;;15.60;99.40;;;;;;7400239;19;20733;-72
2023/10/25 02:14:20;;;;;;;6.95;1.63;;;15.60;99.30;;;;;;7377311;19;20018;-72
2023/10/25 02:16:49;;;;;;;5.78;2.30;;;15.50;99.30;;;;;;7378461;19;20007;-72
2023/10/25 02:19:19;;;;;;;7.68;1.90;;;15.60;99.40;;;;;;7378728;19;20255;-72
2023/10/25 02:21:47;;;;;;;5.05;1.40;;;15.50;99.30;;;;;;7378579;19;20003;-72
2023/10/25 02:24:17;;;;;;;2.72;1.25;;;15.50;99.50;;;;;;7386663;19;20358;-73
2023/10/25 02:26:46;;;;;;;5.20;1.63;;;15.50;99.50;;;;;;7400438;19;20007;-72
2023/10/25 02:29:15;;;;;;;5.53;1.70;;;15.40;99.60;;;;;;7377997;19;20026;-72
2023/10/25 02:31:46;;;;;;;5.88;1.50;;;15.50;99.70;;;;;;7378510;19;20062;-72
2023/10/25 02:34:15;;;;;;;;;;;15.40;99.70;;;;;;7379723;19;20006;-72
2023/10/25 02:36:43;;;;;;;3.25;1.58;;;15.50;99.70;;;;;;7378345;19;19978;-72
2023/10/25 02:39:12;;;;;;;4.65;1.27;;;15.50;99.60;;;;;;7400051;19;20070;-72
2023/10/25 02:41:41;;;;;;;7.13;1.80;;;15.50;99.70;;;;;;7377551;19;20059;-71
2023/10/25 02:44:09;;;;;;;7.32;1.90;;;15.50;99.70;;;;;;7375937;19;20016;-72
2023/10/25 02:46:38;;;;;;;9.70;2.10;;;15.50;99.70;;;;;;7378171;19;20011;-72
2023/10/25 02:49:09;;;;;;;5.65;1.83;;;15.50;99.80;;;;;;7377468;19;20007;-73
2023/10/25 02:51:38;;;;;;;8.90;1.58;;;15.50;99.90;;;;;;7378739;19;20006;-72
2023/10/25 02:54:07;;;;;;;7.93;1.73;;;15.50;99.80;;;;;;7400000;19;20003;-72
2023/10/25 02:56:36;;;;;;;4.43;1.73;;;15.60;99.90;;;;;;7377250;19;20058;-72
2023/10/25 02:59:05;;;;;;;3.38;1.60;;;15.60;99.80;;;;;;7377193;19;20019;-72
2023/10/25 03:01:34;;;;;;;2.70;1.50;;;15.60;99.90;;;;;;7377580;19;20010;-72
2023/10/25 03:04:03;;;;;;;7.53;1.85;;;15.60;99.90;;;;;;7377592;19;19999;-72
2023/10/25 03:06:34;;;;;;;6.38;1.90;;;15.60;99.90;;;;;;7377930;19;20055;-72
2023/10/25 03:09:02;;;;;;;3.30;1.73;;;15.50;99.90;;;;;;7397533;19;20285;-72
2023/10/25 03:11:31;;;;;;;4.30;1.67;;;15.60;99.90;;;;;;7376963;19;20015;-72
2023/10/25 03:14:00;;;;;;;5.43;1.85;;;15.60;99.90;;;;;;7377255;19;20016;-72
2023/10/25 03:16:28;;;;;;;17.58;2.30;;;15.60;99.90;;;;;;7377394;19;20010;-72
2023/10/25 03:18:57;;;;;;;5.05;1.70;;;15.60;99.90;;;;;;7377183;19;20232;-73
2023/10/25 03:21:26;;;;;;;13.70;2.20;;;15.60;99.90;;;;;;7376266;19;20010;-73
2023/10/25 03:23:58;;;;;;;8.20;1.52;;;15.60;99.90;;;;;;7400249;19;20010;-73
2023/10/25 03:26:26;;;;;;;11.30;1.83;;;15.60;99.90;;;;;;7382320;19;20011;-72
2023/10/25 03:28:56;;;;;;;4.78;1.83;;;15.60;99.90;;;;;;7382735;19;20030;-72
2023/10/25 03:31:24;;;;;;;7.82;1.65;;;15.60;99.90;;;;;;7384263;19;20385;-72
2023/10/25 03:33:53;;;;;;;6.05;2.28;;;15.60;99.90;;;;;;7384198;19;20070;-72
2023/10/25 03:36:22;;;;;;;8.38;2.22;;;15.70;99.90;;;;;;7384378;19;20016;-73
2023/10/25 03:38:50;;;;;;;4.32;1.88;;;15.70;99.90;;;;;;7405696;19;20014;-72
2023/10/25 03:41:22;;;;;;;5.25;1.92;;;15.70;99.90;;;;;;7383233;19;20015;-72
2023/10/25 03:43:50;;;;;;;10.95;2.00;;;15.70;99.90;;;;;;7382313;19;20006;-72
2023/10/25 03:46:19;;;;;;;3.42;1.80;;;15.80;99.90;;;;;;7383940;19;20006;-72
2023/10/25 03:48:48;;;;;;;6.93;1.60;;;15.80;99.90;;;;;;7382909;19;20003;-72
2023/10/25 03:51:17;;;;;;;9.32;2.63;;;15.80;99.90;;;;;;7386025;19;20006;-73
2023/10/25 03:53:45;;;;;;;5.15;1.90;;;15.80;99.90;;;;;;7405681;19;20228;-72
2023/10/25 03:56:14;;;;;;;5.38;2.08;;;15.90;99.90;;;;;;7383237;19;20151;-73
2023/10/25 03:58:45;;;;;;;6.18;2.03;;;15.80;99.90;;;;;;7383490;19;20090;-72
2023/10/25 04:01:14;;;;;;;5.85;1.80;;;15.80;99.90;;;;;;7383488;19;20003;-72
2023/10/25 04:03:43;;;;;;;3.80;1.77;;;15.60;99.90;;;;;;7383307;19;20003;-72
2023/10/25 04:06:11;;;;;;;6.50;1.80;;;15.70;99.90;;;;;;7405045;19;20010;-72
2023/10/25 04:08:40;;;;;;;5.47;1.88;;;15.70;99.90;;;;;;7381338;19;20007;-72
2023/10/25 04:11:10;;;;;;;4.28;2.03;;;15.70;99.90;;;;;;7382758;19;20325;-72
2023/10/25 04:13:38;;;;;;;3.08;1.77;;;15.70;99.90;;;;;;7382975;19;20258;-72
2023/10/25 04:16:10;;;;;;;4.90;1.88;;;15.70;99.90;;;;;;7383024;19;20014;-73
2023/10/25 04:18:39;;;;;;;3.97;1.83;;;15.70;99.90;;;;;;7382959;19;20070;-72
2023/10/25 04:21:12;;;;;;;4.80;1.70;;;15.70;99.90;;;;;;7408206;19;20011;-73
2023/10/25 04:23:42;;;;;;;7.15;2.17;;;15.70;99.90;;;;;;7385903;19;20257;-74
2023/10/25 04:26:12;;;;;;;9.80;2.05;;;15.80;99.90;;;;;;7385545;19;20007;-73
2023/10/25 04:28:41;;;;;;;5.10;2.15;;;15.80;99.90;;;;;;7385359;19;20010;-74
2023/10/25 04:31:13;;;;;;;4.85;1.90;;;15.70;99.90;;;;;;7384289;19;20051;-74
2023/10/25 04:33:42;;;;;;;7.72;2.20;;;15.80;99.90;;;;;;7384018;19;20011;-73
2023/10/25 04:36:12;;;;;;;5.28;2.00;;;15.80;99.90;;;;;;7403307;19;20017;-73
2023/10/25 04:38:41;;;;;;;5.18;2.17;;;15.80;99.90;;;;;;7381757;19;20026;-73
2023/10/25 04:41:10;;;;;;;5.50;1.98;;;15.80;99.90;;;;;;7381363;19;20037;-73
2023/10/25 04:43:39;;;;;;;10.98;2.40;;;15.80;99.90;;;;;;7381071;19;20007;-73
2023/10/25 04:46:08;;;;;;;6.50;1.73;;;15.90;99.90;;;;;;7381629;19;20010;-72
2023/10/25 04:48:39;;;;;;;6.07;1.85;;;15.90;99.90;;;;;;7381319;19;20009;-72
2023/10/25 04:51:12;;;;;;;5.68;2.20;;;15.90;99.90;;;;;;7402911;19;20023;-74
2023/10/25 04:53:41;;;;;;;8.50;2.17;;;15.90;99.90;;;;;;7381145;19;20002;-74
2023/10/25 04:56:10;;;;;;;5.57;2.15;;;16.00;99.90;;;;;;7380963;19;20019;-73
2023/10/25 04:58:38;;;;;;;11.13;2.30;;;16.00;99.90;;;;;;7380992;19;19998;-72
2023/10/25 05:01:14;;;;;;;4.60;2.45;;;16.00;99.90;;;;;;7381084;19;20286;-72
2023/10/25 05:03:46;;;;;;;7.65;2.15;;;16.00;99.90;;;;;;7380941;19;20409;-72
2023/10/25 05:06:14;;;;;;;;;;;16.10;99.90;;;;;;7403760;19;20021;-73
2023/10/25 05:08:44;;;;;;;18.02;2.47;;;16.10;99.90;;;;;;7379752;19;20193;-73
2023/10/25 05:11:17;;;;;;;12.93;2.20;;;15.80;99.90;;;;;;7380377;19;20009;-71
2023/10/25 05:13:49;;;;;;;8.57;2.20;;;15.90;99.90;;;;;;7380994;19;20013;-72
2023/10/25 05:16:18;;;;;;;9.10;2.03;;;15.90;99.90;;;;;;7382087;19;20002;-72
2023/10/25 05:18:50;;;;;;;7.93;2.33;;;16.00;99.90;;;;;;7380719;19;20362;-72
2023/10/25 05:21:21;;;;;;;10.32;2.63;;;16.00;99.90;;;;;;7380825;19;20003;-72
2023/10/25 05:23:52;;;;;;;22.07;3.00;;;16.00;99.90;;;;;;7402066;19;20050;-72
2023/10/25 05:26:21;;;;;;;11.02;2.45;;;16.00;99.90;;;;;;7379878;19;20002;-72
2023/10/25 05:28:51;;;;;;;16.02;2.88;;;16.00;99.90;;;;;;7379434;19;20006;-72
2023/10/25 05:31:21;;;;;;;9.07;2.65;;;16.10;99.90;;;;;;7380315;19;20014;-72
2023/10/25 05:33:53;;;;;;;7.93;2.60;;;16.00;99.90;;;;;;7380222;19;20002;-72
2023/10/25 05:36:22;;;;;;;9.43;2.63;;;16.10;99.90;;;;;;7380161;19;20066;-71
2023/10/25 05:38:51;;;;;;;13.40;3.05;;;16.10;99.90;;;;;;7401571;19;20031;-72
2023/10/25 05:41:22;;;;;;;11.65;3.22;;;16.10;99.90;;;;;;7379232;19;20445;-73
2023/10/25 05:44:00;;;;;;;12.57;3.20;;;15.90;99.90;;;;;;7378452;19;20464;-73
2023/10/25 05:46:28;;;;;;;15.63;2.80;;;16.00;99.90;;;;;;7379771;19;20002;-72
2023/10/25 05:49:00;;;;;;;11.35;2.92;;;15.90;99.90;;;;;;7377681;19;20062;-72
2023/10/25 05:51:30;;;;;;;14.82;3.22;;;15.90;99.90;;;;;;7379977;19;20002;-73
2023/10/25 05:53:59;;;;;;;14.15;2.42;;;16.00;99.90;;;;;;7401469;19;20011;-72
2023/10/25 05:56:29;;;;;;;12.00;2.88;;;16.00;99.90;;;;;;7378861;19;20019;-72
2023/10/25 05:58:59;;;;;;;15.73;3.13;;;15.90;99.90;;;;;;7379099;19;20002;-72
2023/10/25 06:01:44;;;;;;;24.77;2.80;;;16.00;99.90;;;;;;7379305;19;20007;-72
2023/10/25 06:04:16;;;;;;;14.52;2.65;;;15.90;99.90;;;;;;7379414;19;20006;-73
2023/10/25 06:06:47;;;;;;;9.73;2.65;;;16.10;99.90;;;;;;7378859;19;20487;-72
2023/10/25 06:09:16;;;;;;;15.23;3.42;;;16.10;99.90;;;;;;7394457;19;20007;-72
2023/10/25 06:11:45;;;;;;;8.52;2.50;;;16.20;99.90;;;;;;7400616;19;20085;-72
2023/10/25 06:14:15;;;;;;;14.52;2.90;;;16.00;99.90;;;;;;7378791;19;20267;-72
2023/10/25 06:16:43;;;;;;;7.63;2.33;;;16.10;99.90;;;;;;7378734;19;20011;-72
2023/10/25 06:19:15;;;;;;;17.48;3.47;;;16.00;99.90;;;;;;7378612;19;20074;-73
2023/10/25 06:21:43;;;;;;;16.33;2.67;;;16.10;99.90;;;;;;7378835;19;20067;-72
2023/10/25 06:24:12;;;;;;;11.27;2.47;;;16.20;99.90;;;;;;7400145;19;20020;-73
2023/10/25 06:26:41;;;;;;;9.18;2.85;;;16.30;99.90;;;;;;7378439;19;20007;-72
2023/10/25 06:29:10;;;;;;;13.77;3.05;;;16.30;99.90;;;;;;7377646;19;20392;-73
2023/10/25 06:31:39;;;;;;;11.77;3.22;;;16.30;99.90;;;;;;7378726;19;20003;-73
2023/10/25 06:34:08;;;;;;;17.17;2.95;;;16.30;99.90;;;;;;7378449;19;20361;-73
2023/10/25 06:36:40;;;;;;;14.38;3.03;;;16.40;99.90;;;;;;7378655;19;20016;-73
2023/10/25 06:39:09;;;;;;;13.50;2.20;;;16.20;99.90;;;;;;7399967;19;20006;-72
2023/10/25 06:41:39;;;;;;;11.98;2.00;;;16.30;99.90;;;;;;7377520;19;20006;-73
2023/10/25 06:44:09;;;;;;;8.07;1.95;;;16.10;99.90;;;;;;7376276;19;20098;-73
2023/10/25 06:46:39;;;;;;;8.40;1.70;;;16.20;99.90;;;;;;7378639;19;20023;-73
2023/10/25 06:49:08;;;;;;;4.85;1.65;;;16.00;99.90;;;;;;7377537;19;20290;-72
2023/10/25 06:51:40;;;;;;;10.40;1.48;;;16.10;99.90;;;;;;7378199;19;20033;-73
2023/10/25 06:54:11;;;;;;;5.10;1.58;;;16.10;99.90;;;;;;7399598;19;20011;-73
2023/10/25 06:56:40;;;;;;;4.22;1.40;;;16.00;99.90;;;;;;7377264;19;20366;-73
2023/10/25 06:59:10;;;;;;;5.53;1.58;;;16.00;99.90;;;;;;7377699;19;20010;-72
2023/10/25 07:01:44;;;;;;;2.65;1.25;;;16.10;99.90;;;;;;7385079;19;20006;-73
2023/10/25 07:04:16;;;;;;;2.97;1.27;;;16.00;99.90;;;;;;7383433;19;20002;-72
2023/10/25 07:06:50;;;;;;;1.90;1.00;;;15.90;99.90;;;;;;7385118;19;20288;-72
2023/10/25 07:09:19;;;;;;;3.28;1.23;;;16.00;99.90;;;;;;7387081;19;20011;-72
2023/10/25 07:11:48;;;;;;;2.50;0.93;;;16.10;99.90;;;;;;7406461;19;20003;-72
2023/10/25 07:14:17;;;;;;;3.05;1.00;;;16.10;99.90;;;;;;7384297;19;20007;-72
2023/10/25 07:16:46;;;;;;;4.35;1.27;;;16.20;99.90;;;;;;7385061;19;20306;-72
2023/10/25 07:19:14;;;;;;;3.13;1.40;;;16.20;99.90;;;;;;7384774;19;20015;-73
2023/10/25 07:21:43;;;;;;;1.98;1.00;;;16.30;99.90;;;;;;7384658;19;20409;-73
2023/10/25 07:24:15;;;;;;;4.30;1.40;;;16.30;99.90;;;;;;7405937;19;20368;-73
2023/10/25 07:26:44;;;;;;;4.60;0.95;;;16.20;99.90;;;;;;7384115;19;19998;-72
2023/10/25 07:29:13;;;;;;;2.67;1.30;;;15.90;99.90;;;;;;7382712;19;20003;-72
2023/10/25 07:31:41;;;;;;;5.50;1.30;;;15.90;99.90;;;;;;7383926;19;20018;-72
2023/10/25 07:34:10;;;;;;;1.52;0.90;;;16.00;99.90;;;;;;7383999;19;20386;-72
2023/10/25 07:36:39;;;;;;;0.85;0.77;;;16.10;99.90;;;;;;7384362;19;20058;-72
2023/10/25 07:39:07;;;;;;;0.90;0.73;;;16.10;99.90;;;;;;7405864;19;20011;-72
2023/10/25 07:41:39;;;;;;;1.95;0.90;;;16.10;99.90;;;;;;7382980;19;20011;-72
2023/10/25 07:44:08;;;;;;;2.53;1.05;;;16.10;99.90;;;;;;7381161;19;20014;-72
2023/10/25 07:46:36;;;;;;;2.08;0.75;;;16.10;99.90;;;;;;7383573;19;20010;-72
2023/10/25 07:49:05;;;;;;;0.95;0.82;;;16.20;99.90;;;;;;7383089;19;20410;-72
2023/10/25 07:51:36;;;;;;;4.03;1.00;;;16.20;99.90;;;;;;7383832;19;20023;-72
2023/10/25 07:54:05;;;;;;;0.93;0.80;;;16.30;99.90;;;;;;7405380;19;20055;-71
2023/10/25 07:56:33;;;;;;;3.10;0.90;;;16.20;99.90;;;;;;7382258;19;20285;-72
2023/10/25 07:59:05;;;;;;;1.08;0.88;;;16.10;99.90;;;;;;7381902;19;20318;-72
2023/10/25 08:01:33;;;;;;;;;;;16.10;99.90;;;;;;7383483;19;20015;-72
2023/10/25 08:04:03;;;;;;;5.10;1.50;;;16.20;99.90;;;;;;7382870;19;19915;-72
2023/10/25 08:06:31;;;;;;;3.95;1.40;;;16.10;99.90;;;;;;7386041;19;20079;-72
2023/10/25 08:09:00;;;;;;;2.15;1.25;;;16.10;99.90;;;;;;7403792;19;20025;-73
2023/10/25 08:11:34;;;;;;;2.25;1.52;;;16.30;99.90;;;;;;7380331;19;20068;-72
2023/10/25 08:14:05;;;;;;;4.00;1.38;;;16.30;99.90;;;;;;7382091;19;20003;-73
2023/10/25 08:16:39;;;;;;;;;;;16.30;99.90;;;;;;7382909;19;20051;-72
2023/10/25 08:19:08;;;;;;;2.75;1.38;;;16.50;99.90;;;;;;7382239;19;19971;-72
2023/10/25 08:21:37;;;;;;;2.15;1.13;;;16.40;99.90;;;;;;7382485;19;19992;-72
2023/10/25 08:24:07;;;;;;;2.10;1.25;;;16.50;99.90;;;;;;7403836;19;20007;-72
2023/10/25 08:26:39;;;;;;;4.07;1.30;;;16.50;99.90;;;;;;7381474;19;20265;-71
2023/10/25 08:29:11;;;;;;;2.08;1.05;;;16.50;99.90;;;;;;7381234;19;20007;-72
2023/10/25 08:31:39;;;;;;;2.42;1.20;;;16.50;99.90;;;;;;7381574;19;20024;-73
2023/10/25 08:34:10;;;;;;;3.47;1.33;;;16.40;99.90;;;;;;7381509;19;20070;-72
2023/10/25 08:36:39;;;;;;;3.67;1.45;;;16.30;99.90;;;;;;7382133;19;20011;-73
2023/10/25 08:39:07;;;;;;;2.28;1.80;;;16.30;99.90;;;;;;7403209;19;20002;-72
2023/10/25 08:41:37;;;;;;;2.33;1.70;;;16.40;99.90;;;;;;7381124;19;20287;-73
2023/10/25 08:44:08;;;;;;;2.83;1.30;;;16.30;99.90;;;;;;7379511;19;20002;-73
2023/10/25 08:46:39;;;;;;;2.85;1.70;;;16.30;99.90;;;;;;7381383;19;20400;-73
2023/10/25 08:49:08;;;;;;;1.30;1.20;;;16.40;99.90;;;;;;7381842;19;20047;-72
2023/10/25 08:51:37;;;;;;;1.73;1.33;;;16.30;99.90;;;;;;7382006;19;19996;-72
2023/10/25 08:54:07;;;;;;;2.45;1.00;;;16.40;99.90;;;;;;7402928;19;20059;-72
2023/10/25 08:56:38;;;;;;;1.00;0.90;;;16.40;99.90;;;;;;7380541;19;20002;-72
2023/10/25 08:59:07;;;;;;;2.22;1.38;;;16.50;99.90;;;;;;7380418;19;20070;-72
2023/10/25 09:01:38;;;;;;;1.13;1.05;;;16.50;99.90;;;;;;7382708;19;20017;-73
2023/10/25 09:04:11;;;;;;;1.70;0.90;;;16.30;99.90;;;;;;7380711;19;20322;-73
2023/10/25 09:06:40;;;;;;;2.65;1.17;;;16.30;99.90;;;;;;7381046;19;20077;-73
2023/10/25 09:09:11;;;;;;;1.50;0.90;;;16.40;99.90;;;;;;7402612;19;20006;-74
2023/10/25 09:11:44;;;;;;;3.50;0.98;;;16.50;99.90;;;;;;7377872;19;20024;-73
2023/10/25 09:14:13;;;;;;;1.17;0.90;;;16.50;99.90;;;;;;7379966;19;20720;-71
2023/10/25 09:16:47;;;;;;;5.80;1.23;;;16.60;99.90;;;;;;7380868;19;20017;-73
2023/10/25 09:19:20;;;;;;;1.70;1.00;;;16.60;99.90;;;;;;7380504;19;20014;-73
2023/10/25 09:21:49;;;;;;;2.28;1.13;;;16.60;99.90;;;;;;7380527;19;20002;-73
2023/10/25 09:24:18;;;;;;;3.67;0.95;;;16.60;99.90;;;;;;7378131;19;20014;-72
2023/10/25 09:26:47;;;;;;;0.98;0.82;;;16.60;99.90;;;;;;7401844;19;20006;-73
2023/10/25 09:29:15;;;;;;;1.70;0.85;;;16.50;99.90;;;;;;7379410;19;20070;-73
2023/10/25 09:31:49;;;;;;;0.95;0.95;;;16.50;99.90;;;;;;7379156;19;20011;-73
2023/10/25 09:34:18;;;;;;;2.65;1.40;;;16.50;99.90;;;;;;7379776;19;20398;-73
2023/10/25 09:36:47;;;;;;;4.97;1.95;;;16.50;99.90;;;;;;7379739;19;20078;-72
2023/10/25 09:39:16;;;;;;;2.55;1.55;;;16.60;99.90;;;;;;7392313;19;20086;-72
2023/10/25 09:41:50;;;;;;;3.10;1.33;;;16.70;99.90;;;;;;7399324;19;20010;-72
2023/10/25 09:44:21;;;;;;;2.75;1.58;;;16.70;99.90;;;;;;7377672;19;20003;-72
2023/10/25 09:46:53;;;;;;;5.22;1.70;;;16.70;99.90;;;;;;7379952;19;20062;-72
2023/10/25 09:49:26;;;;;;;3.63;1.10;;;16.80;99.90;;;;;;7379726;19;20010;-72
2023/10/25 09:52:05;;;;;;;1.63;1.10;;;16.80;99.90;;;;;;7378446;19;20357;-72
2023/10/25 09:54:35;;;;;;;0.93;0.80;;;16.90;99.90;;;;;;7379816;19;20018;-72
2023/10/25 09:57:05;;;;;;;5.63;0.93;;;17.00;99.90;;;;;;7401377;19;20017;-73
2023/10/25 09:59:35;;;;;;;4.18;1.30;;;17.00;99.90;;;;;;7378813;19;20007;-73
2023/10/25 10:02:10;;;;;;;4.65;2.03;;;17.10;99.90;;;;;;7378894;19;20007;-73
2023/10/25 10:04:52;;;;;;;1.73;1.55;;;17.10;99.70;;;;;;7379282;19;20016;-73
2023/10/25 10:07:32;;;;;;;2.72;1.45;;;17.20;99.70;;;;;;7379350;19;20006;-73
2023/10/25 10:10:09;;;;;;;1.60;0.90;;;17.20;99.40;;;;;;7378861;19;20074;-74
2023/10/25 10:12:39;;;;;;;1.45;1.00;;;17.10;99.10;;;;;;7378993;19;20373;-72
2023/10/25 10:15:12;;;;;;;1.88;0.93;;;17.20;98.70;;;;;;7400524;19;20055;-72
2023/10/25 10:17:47;;;;;;;2.83;1.10;;;17.20;98.60;;;;;;7378571;19;20011;-73
2023/10/25 10:20:26;;;;;;;12.65;2.83;;;17.10;98.90;;;;;;7378322;19;20070;-73
2023/10/25 10:23:04;;;;;;;4.47;0.80;;;17.10;99.30;;;;;;7378951;19;20006;-73
2023/10/25 10:25:46;;;;;;;0.50;0.50;;;17.20;99.40;;;;;;7379455;19;20014;-73
2023/10/25 10:28:16;;;;;;;1.55;1.00;;;17.20;99.10;;;;;;7378993;19;20213;-73
2023/10/25 10:30:45;;;;;;;4.15;1.30;;;17.30;99.00;;;;;;7379282;19;20071;-73
2023/10/25 10:33:16;;;;;;;1.67;1.10;;;17.30;99.00;;;;;;7401603;19;20023;-73
2023/10/25 10:35:49;;;;;;;14.95;3.00;;;17.40;99.00;;;;;;7376981;19;20062;-72
2023/10/25 10:38:18;;;;;;;2.80;1.00;;;17.40;98.90;;;;;;7377257;19;20386;-72
2023/10/25 10:40:52;;;;;;;7.22;2.30;;;17.30;98.70;;;;;;7377893;19;20236;-73
2023/10/25 10:43:21;;;;;;;2.00;1.33;;;17.30;98.90;;;;;;7377077;19;20017;-72
2023/10/25 10:45:56;;;;;;;4.43;1.40;;;17.20;99.00;;;;;;7376635;19;20042;-73
2023/10/25 10:48:34;;;;;;;1.67;1.00;;;17.20;99.00;;;;;;7378148;19;20006;-73
2023/10/25 10:51:03;;;;;;;2.30;1.40;;;17.20;99.20;;;;;;7398615;19;20011;-74
2023/10/25 10:53:32;;;;;;;2.30;1.40;;;17.20;99.40;;;;;;7377487;19;20018;-74
2023/10/25 10:56:00;;;;;;;2.90;1.25;;;17.20;99.60;;;;;;7377421;19;20048;-73
2023/10/25 10:58:29;;;;;;;3.42;2.08;;;17.10;99.80;;;;;;7377563;19;20020;-72
2023/10/25 11:00:58;;;;;;;2.78;1.27;;;17.00;99.90;;;;;;7377764;19;20058;-73
2023/10/25 11:03:31;;;;;;;6.88;1.75;;;16.50;99.90;;;;;;7377676;19;20015;-73
2023/10/25 11:06:00;;;;;;;7.07;2.17;;;16.10;99.90;;;;;;7398795;19;20019;-73
2023/10/25 11:08:29;;;;;;;6.30;1.90;;;16.10;99.90;;;;;;7377121;19;20312;-74
2023/10/25 11:10:58;;;;;;;4.30;2.00;;;16.10;99.90;;;;;;7376589;19;20003;-74
2023/10/25 11:13:28;;;;;;;2.20;1.20;;;16.00;99.90;;;;;;7378367;19;19999;-73
2023/10/25 11:16:08;;;;;;;4.03;2.25;;;16.00;99.90;;;;;;7378274;19;20011;-73
2023/10/25 11:18:40;;;;;;;1.70;1.15;;;16.10;99.90;;;;;;7377672;19;20021;-74
2023/10/25 11:21:08;;;;;;;2.22;1.13;;;16.00;99.90;;;;;;7399197;19;20007;-73
2023/10/25 11:23:37;;;;;;;3.72;1.40;;;16.10;99.90;;;;;;7376451;19;20059;-74
2023/10/25 11:26:06;;;;;;;2.13;1.17;;;16.20;99.90;;;;;;7376871;19;20010;-73
2023/10/25 11:28:35;;;;;;;2.97;1.60;;;16.20;99.90;;;;;;7376957;19;20013;-73
2023/10/25 11:31:05;;;;;;;4.18;2.10;;;16.20;99.90;;;;;;7376587;19;20070;-73
2023/10/25 11:33:47;;;;;;;4.53;1.35;;;16.20;99.90;;;;;;7377164;19;20007;-73
2023/10/25 11:36:18;;;;;;;1.85;1.02;;;16.10;99.90;;;;;;7386636;19;20007;-73
2023/10/25 11:38:47;;;;;;;0.63;0.63;;;16.00;99.90;;;;;;7395609;19;20003;-73
2023/10/25 11:41:15;;;;;;;5.90;2.08;;;16.00;99.90;;;;;;7375985;19;20103;-73
2023/10/25 11:43:44;;;;;;;1.30;1.20;;;16.00;99.90;;;;;;7374807;19;20006;-73
2023/10/25 11:46:13;;;;;;;1.27;1.10;;;16.00;99.90;;;;;;7378121;19;19999;-73
2023/10/25 11:48:42;;;;;;;1.90;1.20;;;15.90;99.90;;;;;;7383541;19;20287;-73
2023/10/25 11:51:13;;;;;;;1.20;0.98;;;16.00;99.90;;;;;;7407524;19;20066;-73
2023/10/25 11:53:42;;;;;;;1.67;0.93;;;15.80;99.90;;;;;;7383247;19;20016;-75
2023/10/25 11:56:11;;;;;;;2.08;0.90;;;15.60;99.90;;;;;;7382491;19;20019;-72
2023/10/25 11:58:39;;;;;;;0.85;0.70;;;15.60;99.90;;;;;;7383082;19;20015;-72
2023/10/25 12:01:08;;;;;;;2.95;1.10;;;15.40;99.90;;;;;;7383285;19;20003;-73
2023/10/25 12:03:38;;;;;;;1.55;0.82;;;15.60;99.90;;;;;;7383349;19;19996;-73
2023/10/25 12:06:07;;;;;;;1.63;0.75;;;15.60;99.90;;;;;;7405202;19;20011;-74
2023/10/25 12:08:38;;;;;;;1.00;0.90;;;15.70;99.90;;;;;;7383847;19;20285;-74
2023/10/25 12:11:07;;;;;;;4.50;1.33;;;15.70;99.90;;;;;;7382033;19;20023;-72
2023/10/25 12:13:36;;;;;;;1.85;1.10;;;15.80;99.90;;;;;;7383129;19;20027;-74
2023/10/25 12:16:05;;;;;;;2.42;1.17;;;15.80;99.90;;;;;;7382679;19;20413;-73
2023/10/25 12:18:36;;;;;;;0.88;0.82;;;15.60;99.90;;;;;;7382279;19;20071;-73
2023/10/25 12:21:05;;;;;;;4.00;0.98;;;15.70;99.90;;;;;;7404516;19;20023;-74
2023/10/25 12:23:34;;;;;;;3.28;0.95;;;15.80;99.90;;;;;;7382539;19;20003;-73
2023/10/25 12:26:06;;;;;;;2.70;0.90;;;15.60;99.90;;;;;;7382219;19;20426;-72
2023/10/25 12:28:34;;;;;;;4.13;2.08;;;15.50;99.90;;;;;;7382481;19;20027;-72
2023/10/25 12:31:03;;;;;;;1.30;0.93;;;15.40;99.90;;;;;;7381508;19;20297;-73
2023/10/25 12:33:32;;;;;;;2.25;1.45;;;15.50;99.90;;;;;;7383613;19;20066;-72
2023/10/25 12:36:03;;;;;;;1.70;1.08;;;15.50;99.90;;;;;;7429602;19;20009;-72
2023/10/25 12:38:32;;;;;;;2.13;0.93;;;15.50;99.90;;;;;;7400339;19;20006;-72
2023/10/25 12:41:01;;;;;;;1.67;1.13;;;15.60;99.90;;;;;;7401376;19;20006;-73
2023/10/25 12:43:32;;;;;;;2.03;1.02;;;15.70;99.90;;;;;;7402334;19;20010;-73
2023/10/25 12:46:01;;;;;;;10.77;5.45;;;15.70;99.90;;;;;;7396903;19;20013;-74
2023/10/25 12:48:30;;;;;;;1.15;0.73;;;15.80;99.90;;;;;;7399461;19;20020;-72
2023/10/25 12:51:00;;;;;;;4.93;2.47;;;15.70;99.90;;;;;;7413129;19;20028;-72
2023/10/25 12:53:28;;;;;;;3.55;1.10;;;15.80;99.90;;;;;;7382008;19;20011;-73
2023/10/25 12:55:57;;;;;;;1.38;0.90;;;15.90;99.90;;;;;;7400759;19;20006;-72
2023/10/25 12:58:26;;;;;;;2.50;1.73;;;15.90;99.90;;;;;;7395297;19;20006;-72
2023/10/25 13:01:00;;;;;;;2.38;0.90;;;16.00;99.90;;;;;;7399854;19;20087;-73
2023/10/25 13:03:31;;;;;;;10.68;4.70;;;16.00;99.90;;;;;;7387987;19;20011;-74